createdAt,value
2023-12-23T00:00:14.936Z,18.93
2023-12-23T00:02:43.524Z,19.57
2023-12-23T00:05:11.980Z,19.07
2023-12-23T00:07:40.626Z,18.13
2023-12-23T00:10:09.410Z,18.87
2023-12-23T00:12:37.501Z,18.60
2023-12-23T00:15:06.214Z,18.77
2023-12-23T00:17:36.628Z,18.10
2023-12-23T00:20:06.817Z,15.77
2023-12-23T00:22:37.148Z,17.07
2023-12-23T00:25:05.682Z,15.93
2023-12-23T00:27:33.930Z,15.77
2023-12-23T00:30:02.686Z,16.63
2023-12-23T00:32:31.224Z,17.90
2023-12-23T00:34:59.758Z,20.43
2023-12-23T00:37:28.762Z,19.63
2023-12-23T00:46:58.158Z,17.00
2023-12-23T00:53:45.951Z,16.87
2023-12-23T00:56:23.501Z,15.63
2023-12-23T00:58:52.212Z,15.03
2023-12-23T01:01:20.235Z,15.33
2023-12-23T01:03:48.113Z,14.70
2023-12-23T01:06:16.529Z,13.80
2023-12-23T01:08:44.977Z,15.60
2023-12-23T01:11:18.279Z,11.97
2023-12-23T01:13:46.332Z,12.20
2023-12-23T01:16:15.097Z,12.40
2023-12-23T01:18:43.432Z,11.03
2023-12-23T01:21:12.716Z,11.10
2023-12-23T01:23:40.978Z,11.23
2023-12-23T01:26:10.315Z,9.73
2023-12-23T01:28:38.623Z,9.80
2023-12-23T01:31:07.105Z,10.23
2023-12-23T01:33:35.139Z,9.27
2023-12-23T01:36:07.001Z,9.57
2023-12-23T01:38:35.116Z,10.40
2023-12-23T01:41:04.162Z,10.90
2023-12-23T01:43:32.960Z,13.77
2023-12-23T01:46:01.279Z,14.20
2023-12-23T01:48:30.162Z,16.10
2023-12-23T01:50:59.035Z,17.30
2023-12-23T01:53:28.353Z,17.87
2023-12-23T01:55:57.353Z,19.23
2023-12-23T01:58:26.076Z,20.37
2023-12-23T02:00:54.629Z,21.00
2023-12-23T02:03:48.262Z,18.87
2023-12-23T02:06:16.599Z,19.53
2023-12-23T02:08:45.042Z,20.73
2023-12-23T02:11:40.081Z,18.90
2023-12-23T02:14:17.453Z,18.40
2023-12-23T02:16:46.056Z,17.23
2023-12-23T02:19:14.827Z,17.00
2023-12-23T02:21:43.245Z,16.73
2023-12-23T02:24:11.480Z,16.97
2023-12-23T02:26:40.865Z,15.30
2023-12-23T02:29:08.977Z,15.33
2023-12-23T02:31:37.656Z,15.07
2023-12-23T02:34:06.437Z,15.63
2023-12-23T02:36:38.648Z,15.53
2023-12-23T02:39:07.552Z,15.43
2023-12-23T02:41:35.931Z,16.33
2023-12-23T02:44:04.739Z,14.03
2023-12-23T02:46:33.006Z,14.70
2023-12-23T02:49:01.713Z,14.47
2023-12-23T02:51:29.847Z,13.57
2023-12-23T02:53:57.951Z,13.90
2023-12-23T02:56:25.519Z,13.77
2023-12-23T02:58:55.264Z,14.10
2023-12-23T03:01:23.811Z,13.20
2023-12-23T03:03:51.950Z,13.93
2023-12-23T03:06:20.657Z,13.70
2023-12-23T03:08:49.325Z,13.80
2023-12-23T03:11:17.548Z,14.50
2023-12-23T03:13:45.758Z,14.33
2023-12-23T03:16:18.403Z,15.00
2023-12-23T03:18:47.318Z,13.93
2023-12-23T03:21:15.874Z,14.77
2023-12-23T03:23:44.177Z,15.50
2023-12-23T03:26:12.527Z,16.27
2023-12-23T03:28:40.751Z,15.07
2023-12-23T03:31:09.005Z,15.40
2023-12-23T03:33:37.251Z,15.27
2023-12-23T03:36:05.687Z,15.67
2023-12-23T03:38:33.663Z,15.50
2023-12-23T03:41:01.807Z,15.90
2023-12-23T03:43:30.082Z,16.80
2023-12-23T03:45:58.740Z,16.00
2023-12-23T03:48:26.777Z,15.53
2023-12-23T03:50:54.896Z,18.80
2023-12-23T03:53:22.578Z,23.80
2023-12-23T03:55:50.941Z,17.50
2023-12-23T03:58:19.109Z,18.13
2023-12-23T04:00:47.363Z,16.53
2023-12-23T04:03:15.453Z,17.70
2023-12-23T04:05:43.621Z,17.03
2023-12-23T04:08:12.725Z,16.97
2023-12-23T04:10:40.755Z,17.93
2023-12-23T04:13:09.767Z,20.80
2023-12-23T04:15:38.014Z,26.33
2023-12-23T04:18:06.765Z,17.83
2023-12-23T04:20:34.942Z,17.57
2023-12-23T04:23:03.104Z,17.63
2023-12-23T04:25:31.390Z,17.27
2023-12-23T04:27:59.553Z,19.17
2023-12-23T04:30:27.680Z,20.57
2023-12-23T04:32:56.694Z,19.23
2023-12-23T04:35:25.080Z,20.07
2023-12-23T04:37:53.231Z,22.40
2023-12-23T04:40:21.632Z,21.63
2023-12-23T04:42:49.916Z,19.73
2023-12-23T04:45:18.142Z,18.03
2023-12-23T04:47:46.236Z,17.03
2023-12-23T04:50:14.391Z,16.37
2023-12-23T04:52:42.570Z,17.17
2023-12-23T04:55:11.219Z,16.37
2023-12-23T04:57:39.762Z,16.70
2023-12-23T05:00:08.546Z,15.77
2023-12-23T05:02:39.808Z,17.37
2023-12-23T05:05:11.544Z,17.00
2023-12-23T05:07:39.643Z,19.27
2023-12-23T05:10:08.157Z,18.57
2023-12-23T05:12:39.334Z,16.93
2023-12-23T05:15:07.907Z,14.83
2023-12-23T05:17:36.232Z,16.53
2023-12-23T05:20:04.692Z,15.57
2023-12-23T05:22:33.058Z,15.57
2023-12-23T05:25:01.182Z,14.87
2023-12-23T05:27:29.327Z,14.37
2023-12-23T05:29:59.055Z,14.00
2023-12-23T05:32:29.410Z,13.13
2023-12-23T05:34:59.821Z,14.90
2023-12-23T05:37:27.908Z,12.90
2023-12-23T05:39:55.897Z,14.43
2023-12-23T05:42:25.687Z,13.27
2023-12-23T05:44:53.734Z,13.77
2023-12-23T05:47:22.100Z,15.97
2023-12-23T05:49:50.514Z,15.57
2023-12-23T05:52:18.580Z,14.70
2023-12-23T05:54:46.722Z,14.77
2023-12-23T05:57:15.276Z,14.70
2023-12-23T05:59:43.560Z,15.37
2023-12-23T06:02:11.651Z,14.40
2023-12-23T06:04:40.164Z,15.47
2023-12-23T06:07:08.134Z,14.93
2023-12-23T06:09:36.217Z,16.07
2023-12-23T06:12:04.500Z,15.03
2023-12-23T06:14:32.518Z,16.07
2023-12-23T06:17:00.633Z,14.87
2023-12-23T06:19:29.095Z,15.37
2023-12-23T06:21:57.248Z,17.47
2023-12-23T06:24:24.980Z,12.80
2023-12-23T06:26:53.057Z,13.27
2023-12-23T06:29:21.379Z,13.80
2023-12-23T06:31:49.300Z,14.30
2023-12-23T06:34:17.241Z,14.83
2023-12-23T06:36:45.346Z,14.87
2023-12-23T06:39:12.994Z,15.83
2023-12-23T06:41:42.520Z,17.03
2023-12-23T06:44:11.274Z,21.23
2023-12-23T06:46:39.833Z,18.83
2023-12-23T06:49:08.236Z,17.47
2023-12-23T06:51:39.457Z,15.40
2023-12-23T06:54:07.494Z,14.47
2023-12-23T06:56:35.782Z,13.57
2023-12-23T06:59:04.299Z,12.43
2023-12-23T07:01:39.403Z,14.00
2023-12-23T07:04:10.224Z,12.30
2023-12-23T07:06:38.892Z,12.73
2023-12-23T07:09:08.739Z,14.23
2023-12-23T07:11:37.844Z,13.27
2023-12-23T07:14:05.890Z,12.87
2023-12-23T07:16:33.732Z,12.20
2023-12-23T07:19:01.700Z,11.43
2023-12-23T07:21:29.935Z,11.60
2023-12-23T07:23:58.183Z,10.50
2023-12-23T07:26:26.509Z,11.30
2023-12-23T07:28:57.402Z,11.23
2023-12-23T07:31:25.511Z,11.20
2023-12-23T07:33:53.843Z,11.37
2023-12-23T07:36:22.272Z,11.43
2023-12-23T07:38:50.222Z,11.00
2023-12-23T07:41:18.143Z,10.87
2023-12-23T07:43:46.215Z,12.27
2023-12-23T07:46:14.563Z,10.53
2023-12-23T07:48:42.894Z,12.20
2023-12-23T07:51:11.032Z,12.17
2023-12-23T07:53:39.285Z,10.40
2023-12-23T07:56:11.209Z,10.50
2023-12-23T07:58:38.893Z,11.77
2023-12-23T08:01:14.469Z,11.10
2023-12-23T08:03:44.726Z,11.37
2023-12-23T08:06:12.912Z,11.43
2023-12-23T08:08:41.146Z,10.93
2023-12-23T08:11:09.244Z,10.40
2023-12-23T08:13:39.371Z,8.97
2023-12-23T08:16:07.774Z,8.60
2023-12-23T08:18:36.533Z,9.47
2023-12-23T08:21:05.288Z,7.90
2023-12-23T08:23:33.446Z,7.03
2023-12-23T08:26:01.500Z,7.70
2023-12-23T08:28:29.317Z,6.80
2023-12-23T08:30:57.521Z,10.40
2023-12-23T08:33:26.243Z,9.53
2023-12-23T08:36:01.244Z,7.77
2023-12-23T08:38:29.570Z,8.07
2023-12-23T08:41:00.333Z,6.67
2023-12-23T08:43:30.027Z,10.33
2023-12-23T08:45:57.940Z,7.63
2023-12-23T08:48:26.558Z,8.57
2023-12-23T08:50:57.793Z,7.07
2023-12-23T08:53:28.582Z,7.13
2023-12-23T08:56:00.649Z,7.53
2023-12-23T08:58:32.177Z,6.23
2023-12-23T09:01:00.160Z,6.93
2023-12-23T09:03:29.519Z,10.27
2023-12-23T09:06:00.693Z,7.43
2023-12-23T09:08:30.071Z,7.20
2023-12-23T09:10:58.139Z,7.10
2023-12-23T09:13:32.604Z,7.23
2023-12-23T09:16:03.681Z,7.17
2023-12-23T09:18:33.026Z,7.40
2023-12-23T09:21:01.205Z,12.27
2023-12-23T09:23:29.195Z,8.37
2023-12-23T09:26:01.077Z,7.87
2023-12-23T09:28:29.542Z,9.00
2023-12-23T09:30:57.672Z,7.03
2023-12-23T09:33:26.716Z,7.47
2023-12-23T09:35:55.403Z,11.13
2023-12-23T09:38:23.807Z,7.43
2023-12-23T09:40:51.956Z,7.00
2023-12-23T09:43:23.056Z,8.20
2023-12-23T09:45:52.098Z,7.37
2023-12-23T09:48:20.480Z,7.50
2023-12-23T09:50:50.224Z,6.80
2023-12-23T09:53:20.991Z,7.30
2023-12-23T09:55:49.454Z,14.33
2023-12-23T09:58:20.306Z,9.07
2023-12-23T10:00:50.937Z,6.33
2023-12-23T10:03:23.315Z,5.57
2023-12-23T10:05:56.355Z,6.57
2023-12-23T10:08:27.423Z,8.30
2023-12-23T10:10:55.739Z,9.97
2023-12-23T10:13:24.520Z,8.60
2023-12-23T10:15:52.883Z,5.00
2023-12-23T10:18:20.886Z,4.43
2023-12-23T10:20:49.311Z,4.27
2023-12-23T10:23:17.747Z,4.87
2023-12-23T10:25:46.674Z,5.10
2023-12-23T10:28:16.979Z,6.50
2023-12-23T10:30:49.784Z,8.13
2023-12-23T10:33:19.267Z,5.80
2023-12-23T10:35:49.425Z,5.63
2023-12-23T10:38:19.484Z,5.30
2023-12-23T10:41:24.168Z,4.90
2023-12-23T10:43:53.861Z,5.10
2023-12-23T10:46:22.402Z,4.50
2023-12-23T10:48:51.906Z,6.93
2023-12-23T10:51:21.029Z,7.37
2023-12-23T10:53:48.987Z,6.17
2023-12-23T10:56:17.718Z,6.10
2023-12-23T10:58:46.625Z,5.20
2023-12-23T11:01:16.942Z,5.50
2023-12-23T11:03:45.547Z,6.20
2023-12-23T11:06:14.734Z,6.87
2023-12-23T11:08:43.429Z,4.80
2023-12-23T11:11:12.549Z,4.77
2023-12-23T11:13:40.692Z,5.40
2023-12-23T11:16:12.056Z,4.10
2023-12-23T11:18:44.094Z,4.67
2023-12-23T11:21:17.870Z,4.20
2023-12-23T11:23:47.138Z,4.67
2023-12-23T11:26:39.331Z,5.23
2023-12-23T11:29:08.631Z,4.50
2023-12-23T11:31:38.909Z,4.30
2023-12-23T11:34:17.942Z,4.53
2023-12-23T11:36:47.747Z,4.60
2023-12-23T11:39:17.802Z,5.23
2023-12-23T11:41:51.917Z,4.37
2023-12-23T11:44:20.097Z,4.53
2023-12-23T11:46:48.318Z,4.40
2023-12-23T11:49:17.544Z,3.70
2023-12-23T11:51:46.284Z,4.23
2023-12-23T11:54:17.181Z,6.97
2023-12-23T11:56:45.644Z,6.07
2023-12-23T11:59:14.250Z,15.47
2023-12-23T12:01:42.586Z,6.30
2023-12-23T12:04:10.879Z,6.60
2023-12-23T12:06:38.772Z,5.37
2023-12-23T12:09:08.070Z,5.63
2023-12-23T12:11:36.474Z,5.90
2023-12-23T12:14:04.990Z,7.33
2023-12-23T12:16:33.418Z,5.43
2023-12-23T12:19:01.751Z,7.20
2023-12-23T12:21:29.867Z,7.17
2023-12-23T12:23:59.763Z,5.97
2023-12-23T12:26:28.071Z,6.13
2023-12-23T12:28:56.265Z,6.80
2023-12-23T12:31:24.753Z,6.40
2023-12-23T12:33:54.226Z,6.13
2023-12-23T12:36:22.885Z,7.43
2023-12-23T12:38:52.083Z,7.83
2023-12-23T12:41:20.320Z,8.33
2023-12-23T12:43:48.645Z,7.97
2023-12-23T12:46:17.478Z,5.80
2023-12-23T12:48:47.775Z,7.07
2023-12-23T12:51:18.745Z,8.17
2023-12-23T12:53:48.583Z,13.67
2023-12-23T12:56:23.013Z,7.40
2023-12-23T12:58:52.875Z,9.03
2023-12-23T13:01:22.950Z,16.40
2023-12-23T13:03:51.622Z,8.83
2023-12-23T13:06:20.434Z,10.50
2023-12-23T13:08:51.554Z,8.93
2023-12-23T13:11:25.508Z,9.27
2023-12-23T13:13:53.470Z,9.30
2023-12-23T13:16:21.726Z,9.20
2023-12-23T13:18:57.032Z,9.37
2023-12-23T13:21:31.759Z,9.37
2023-12-23T13:24:00.008Z,14.03
2023-12-23T13:26:28.536Z,28.40
2023-12-23T13:28:57.543Z,11.70
2023-12-23T13:31:25.670Z,11.90
2023-12-23T13:33:53.877Z,10.80
2023-12-23T13:36:23.289Z,37.23
2023-12-23T13:38:51.517Z,14.40
2023-12-23T13:41:29.734Z,12.33
2023-12-23T13:43:58.178Z,11.80
2023-12-23T13:46:26.648Z,12.63
2023-12-23T13:48:56.046Z,15.97
2023-12-23T13:51:25.729Z,13.90
2023-12-23T13:53:53.709Z,13.60
2023-12-23T13:56:22.125Z,12.97
2023-12-23T13:58:50.514Z,14.00
2023-12-23T14:01:19.075Z,13.40
2023-12-23T14:03:47.111Z,14.23
2023-12-23T14:06:15.424Z,12.53
2023-12-23T14:08:44.995Z,13.80
2023-12-23T14:11:13.783Z,12.40
2023-12-23T14:13:41.916Z,13.07
2023-12-23T14:16:10.381Z,13.60
2023-12-23T14:18:38.357Z,13.70
2023-12-23T14:21:06.160Z,14.87
2023-12-23T14:23:34.639Z,15.70
2023-12-23T14:26:05.411Z,17.37
2023-12-23T14:28:36.663Z,15.13
2023-12-23T14:31:05.297Z,14.13
2023-12-23T14:33:33.657Z,13.60
2023-12-23T14:36:01.796Z,12.90
2023-12-23T14:38:30.177Z,11.90
2023-12-23T14:40:58.212Z,12.17
2023-12-23T14:43:26.940Z,12.60
2023-12-23T14:45:54.637Z,11.87
2023-12-23T14:48:22.641Z,12.93
2023-12-23T14:50:50.739Z,14.40
2023-12-23T14:53:18.658Z,13.23
2023-12-23T14:55:51.082Z,14.07
2023-12-23T14:58:19.302Z,13.27
2023-12-23T15:00:47.537Z,13.03
2023-12-23T15:03:16.829Z,13.00
2023-12-23T15:05:45.138Z,15.23
2023-12-23T15:08:13.420Z,12.03
2023-12-23T15:10:41.437Z,11.67
2023-12-23T15:13:09.735Z,10.97
2023-12-23T15:15:38.552Z,11.83
2023-12-23T15:18:09.308Z,10.83
2023-12-23T15:20:40.601Z,10.63
2023-12-23T15:23:08.766Z,10.30
2023-12-23T15:25:37.201Z,10.87
2023-12-23T15:28:05.800Z,10.40
2023-12-23T15:30:36.360Z,12.30
2023-12-23T15:33:04.772Z,10.33
2023-12-23T15:35:32.657Z,9.13
2023-12-23T15:38:02.244Z,10.43
2023-12-23T15:40:31.216Z,9.23
2023-12-23T15:42:59.798Z,11.77
2023-12-23T15:45:28.274Z,9.00
2023-12-23T15:47:56.666Z,9.63
2023-12-23T15:50:24.532Z,10.50
2023-12-23T15:52:52.977Z,9.40
2023-12-23T15:55:46.396Z,10.33
2023-12-23T15:58:15.441Z,10.70
2023-12-23T16:00:43.659Z,9.50
2023-12-23T16:03:12.392Z,14.13
2023-12-23T16:05:40.884Z,11.20
2023-12-23T16:08:11.084Z,10.80
2023-12-23T16:10:40.248Z,11.03
2023-12-23T16:13:09.400Z,11.03
2023-12-23T16:15:37.992Z,11.33
2023-12-23T16:18:06.512Z,11.30
2023-12-23T16:20:34.716Z,11.33
2023-12-23T16:23:03.469Z,11.03
2023-12-23T16:25:31.870Z,12.43
2023-12-23T16:27:59.774Z,12.80
2023-12-23T16:30:29.641Z,11.73
2023-12-23T16:32:58.021Z,12.20
2023-12-23T16:35:26.194Z,13.03
2023-12-23T16:37:54.590Z,14.73
2023-12-23T16:40:22.537Z,15.10
2023-12-23T16:42:51.091Z,16.50
2023-12-23T16:45:20.367Z,17.53
2023-12-23T16:47:48.657Z,18.23
2023-12-23T16:50:17.344Z,19.60
2023-12-23T16:52:45.514Z,20.20
2023-12-23T16:55:14.926Z,24.17
2023-12-23T16:57:43.093Z,20.17
2023-12-23T17:00:11.594Z,21.63
2023-12-23T17:02:40.160Z,20.60
2023-12-23T17:05:09.271Z,19.40
2023-12-23T17:07:37.444Z,21.07
2023-12-23T17:10:07.083Z,22.70
2023-12-23T17:12:35.682Z,20.43
2023-12-23T17:15:04.335Z,23.70
2023-12-23T17:17:33.544Z,21.50
2023-12-23T17:20:01.881Z,20.90
2023-12-23T17:22:30.567Z,20.03
2023-12-23T17:24:59.017Z,21.70
2023-12-23T17:27:26.682Z,19.97
2023-12-23T17:29:55.394Z,20.30
2023-12-23T17:32:29.086Z,23.50
2023-12-23T17:34:57.427Z,27.80
2023-12-23T17:37:25.622Z,24.73
2023-12-23T17:39:55.786Z,24.27
2023-12-23T17:42:24.585Z,27.07
2023-12-23T17:44:55.520Z,23.80
2023-12-23T17:47:25.356Z,22.73
2023-12-23T17:49:53.571Z,20.60
2023-12-23T17:52:21.606Z,20.93
2023-12-23T17:54:49.698Z,20.77
2023-12-23T17:57:18.131Z,18.00
2023-12-23T17:59:46.361Z,21.53
2023-12-23T18:02:16.617Z,18.90
2023-12-23T18:04:47.784Z,19.67
2023-12-23T18:07:16.399Z,19.13
2023-12-23T18:09:44.597Z,26.40
2023-12-23T18:12:12.848Z,21.97
2023-12-23T18:14:41.049Z,28.50
2023-12-23T18:17:08.988Z,26.80
2023-12-23T18:19:38.745Z,27.23
2023-12-23T18:22:07.412Z,30.87
2023-12-23T18:24:35.761Z,34.40
2023-12-23T18:27:04.283Z,32.47
2023-12-23T18:29:32.920Z,38.70
2023-12-23T18:32:01.084Z,40.17
2023-12-23T18:34:29.503Z,40.73
2023-12-23T18:36:57.580Z,44.70
2023-12-23T18:39:25.646Z,37.30
2023-12-23T18:41:53.781Z,35.03
2023-12-23T18:44:23.088Z,32.70
2023-12-23T18:46:51.219Z,36.10
2023-12-23T18:49:19.453Z,34.77
2023-12-23T18:51:47.605Z,28.83
2023-12-23T18:54:17.129Z,29.93
2023-12-23T18:56:45.226Z,31.20
2023-12-23T18:59:13.736Z,31.00
2023-12-23T19:01:42.147Z,35.07
2023-12-23T19:04:10.505Z,33.37
2023-12-23T19:06:38.998Z,34.00
2023-12-23T19:09:07.196Z,32.03
2023-12-23T19:11:35.543Z,30.10
2023-12-23T19:14:03.953Z,30.97
2023-12-23T19:16:33.679Z,32.00
2023-12-23T19:19:02.950Z,29.63
2023-12-23T19:21:31.279Z,28.40
2023-12-23T19:23:59.814Z,27.37
2023-12-23T19:26:28.979Z,23.10
2023-12-23T19:29:01.865Z,20.80
2023-12-23T19:31:33.178Z,19.00
2023-12-23T19:34:01.999Z,17.60
2023-12-23T19:36:30.378Z,16.17
2023-12-23T19:39:00.797Z,16.27
2023-12-23T19:41:28.884Z,15.50
2023-12-23T19:43:57.141Z,16.43
2023-12-23T19:46:25.300Z,15.67
2023-12-23T19:48:53.512Z,15.30
2023-12-23T19:51:23.219Z,15.03
2023-12-23T19:53:52.297Z,13.67
2023-12-23T19:56:20.545Z,13.17
2023-12-23T19:58:48.806Z,13.93
2023-12-23T20:01:16.936Z,14.77
2023-12-23T20:03:46.565Z,14.53
2023-12-23T20:06:14.972Z,15.57
2023-12-23T20:08:43.237Z,15.63
2023-12-23T20:11:11.502Z,15.93
2023-12-23T20:13:39.893Z,15.47
2023-12-23T20:16:08.330Z,16.77
2023-12-23T20:18:37.774Z,18.07
2023-12-23T20:21:06.228Z,17.33
2023-12-23T20:23:34.150Z,17.17
2023-12-23T20:26:02.480Z,16.37
2023-12-23T20:28:30.765Z,15.27
2023-12-23T20:30:59.186Z,14.60
2023-12-23T20:33:27.616Z,18.87
2023-12-23T20:35:55.857Z,14.60
2023-12-23T20:38:23.970Z,14.50
2023-12-23T20:40:52.051Z,14.47
2023-12-23T20:43:20.978Z,14.47
2023-12-23T20:45:49.734Z,14.60
2023-12-23T20:48:18.806Z,14.90
2023-12-23T20:50:50.156Z,14.07
2023-12-23T20:53:18.670Z,14.37
2023-12-23T20:55:50.040Z,15.10
2023-12-23T20:58:18.412Z,15.17
2023-12-23T21:00:46.730Z,14.90
2023-12-23T21:03:14.826Z,16.17
2023-12-23T21:05:44.360Z,17.40
2023-12-23T21:08:12.825Z,17.70
2023-12-23T21:10:41.902Z,16.80
2023-12-23T21:13:09.895Z,18.87
2023-12-23T21:15:38.667Z,18.40
2023-12-23T21:18:06.832Z,18.37
2023-12-23T21:20:35.333Z,19.03
2023-12-23T21:23:03.815Z,18.77
2023-12-23T21:25:32.102Z,19.77
2023-12-23T21:28:00.142Z,20.67
2023-12-23T21:30:28.613Z,19.47
2023-12-23T21:32:57.234Z,21.63
2023-12-23T21:35:25.998Z,21.23
2023-12-23T21:37:53.968Z,20.60
2023-12-23T21:40:22.401Z,27.83
2023-12-23T21:43:16.311Z,22.57
2023-12-23T21:45:45.247Z,20.17
2023-12-23T21:48:13.896Z,19.97
2023-12-23T21:50:42.159Z,19.77
2023-12-23T21:53:13.152Z,21.50
2023-12-23T21:55:44.348Z,20.80
2023-12-23T21:58:13.197Z,21.23
2023-12-23T22:00:44.617Z,20.27
2023-12-23T22:03:12.746Z,19.23
2023-12-23T22:05:40.766Z,19.10
2023-12-23T22:08:09.144Z,18.43
2023-12-23T22:10:40.132Z,17.83
2023-12-23T22:13:07.908Z,15.97
2023-12-23T22:15:36.008Z,16.40
2023-12-23T22:18:04.372Z,16.83
2023-12-23T22:20:33.546Z,14.47
2023-12-23T22:23:01.771Z,16.33
2023-12-23T22:25:30.180Z,14.87
2023-12-23T22:27:58.764Z,14.83
2023-12-23T22:30:27.048Z,14.90
2023-12-23T22:32:57.943Z,13.77
2023-12-23T22:35:26.706Z,15.10
2023-12-23T22:37:54.700Z,16.23
2023-12-23T22:40:22.649Z,13.67
2023-12-23T22:42:51.419Z,14.40
2023-12-23T22:45:21.748Z,14.13
2023-12-23T22:48:14.838Z,14.67
2023-12-23T22:50:43.433Z,15.37
2023-12-23T22:53:13.464Z,17.60
2023-12-23T22:55:41.926Z,15.43
2023-12-23T22:58:10.730Z,15.33
2023-12-23T23:00:39.119Z,15.23
2023-12-23T23:03:07.213Z,14.73
2023-12-23T23:05:35.969Z,14.20
2023-12-23T23:08:05.844Z,14.30
2023-12-23T23:10:34.964Z,13.33
2023-12-23T23:13:06.282Z,12.10
2023-12-23T23:15:34.390Z,10.97
2023-12-23T23:18:02.215Z,12.70
2023-12-23T23:20:31.387Z,12.40
2023-12-23T23:23:00.751Z,13.07
2023-12-23T23:25:29.776Z,16.40
2023-12-23T23:27:58.076Z,13.90
2023-12-23T23:30:26.377Z,11.80
2023-12-23T23:32:56.404Z,11.47
2023-12-23T23:35:25.867Z,11.37
2023-12-23T23:37:53.789Z,11.70
2023-12-23T23:40:21.777Z,11.17
2023-12-23T23:42:50.001Z,11.00
2023-12-23T23:45:18.181Z,10.73
2023-12-23T23:47:47.172Z,10.97
2023-12-23T23:50:16.410Z,11.97
2023-12-23T23:52:45.496Z,9.23
2023-12-23T23:55:14.161Z,9.87
2023-12-23T23:57:45.267Z,9.70
